createdAt,value
2019-02-16T00:04:40.700Z,8.38
2019-02-16T00:09:59.254Z,8.26
2019-02-16T00:15:17.752Z,8.20
2019-02-16T00:20:36.666Z,8.21
2019-02-16T00:25:55.145Z,7.93
2019-02-16T00:31:13.756Z,7.84
2019-02-16T00:36:33.862Z,7.60
2019-02-16T00:41:52.487Z,7.55
2019-02-16T00:47:13.411Z,7.86
2019-02-16T00:52:31.984Z,7.54
2019-02-16T00:57:50.556Z,7.46
2019-02-16T01:03:09.176Z,7.51
2019-02-16T01:08:27.663Z,7.45
2019-02-16T01:13:46.453Z,7.21
2019-02-16T01:19:05.069Z,7.17
2019-02-16T01:24:23.617Z,7.18
2019-02-16T01:29:42.224Z,6.99
2019-02-16T01:35:01.151Z,6.81
2019-02-16T01:40:19.810Z,6.78
2019-02-16T01:45:38.358Z,6.66
2019-02-16T01:50:56.862Z,6.66
2019-02-16T01:56:15.759Z,6.69
2019-02-16T02:01:34.379Z,6.54
2019-02-16T02:06:53.000Z,6.36
2019-02-16T02:12:11.942Z,6.33
2019-02-16T02:17:30.562Z,6.46
2019-02-16T02:22:52.134Z,6.50
2019-02-16T02:28:10.923Z,6.39
2019-02-16T02:33:29.487Z,6.70
2019-02-16T02:38:48.117Z,6.78
2019-02-16T02:44:06.788Z,6.84
2019-02-16T02:49:25.294Z,6.70
2019-02-16T02:54:43.833Z,6.57
2019-02-16T03:00:02.499Z,6.74
2019-02-16T03:05:24.162Z,6.60
2019-02-16T03:10:45.649Z,6.61
2019-02-16T03:16:04.276Z,6.35
2019-02-16T03:21:22.874Z,6.04
2019-02-16T03:26:56.291Z,5.86
2019-02-16T03:32:20.855Z,5.61
2019-02-16T03:37:57.033Z,5.74
2019-02-16T03:43:15.632Z,5.77
2019-02-16T03:48:34.508Z,6.01
2019-02-16T03:53:53.066Z,6.13
2019-02-16T03:59:11.892Z,6.23
2019-02-16T04:04:30.516Z,6.16
2019-02-16T04:09:49.007Z,6.21
2019-02-16T04:15:08.598Z,5.78
2019-02-16T04:20:27.240Z,5.45
2019-02-16T04:25:45.729Z,5.37
2019-02-16T04:31:04.362Z,5.00
2019-02-16T04:36:23.202Z,4.70
2019-02-16T04:41:41.646Z,4.54
2019-02-16T04:47:00.133Z,4.51
2019-02-16T04:52:18.685Z,4.16
2019-02-16T04:57:37.178Z,3.97
2019-02-16T05:02:55.799Z,4.16
2019-02-16T05:08:14.366Z,4.37
2019-02-16T05:13:32.941Z,3.81
2019-02-16T05:18:51.426Z,3.72
2019-02-16T05:24:10.446Z,3.67
2019-02-16T05:29:28.933Z,3.74
2019-02-16T05:34:47.482Z,3.65
2019-02-16T05:40:08.275Z,3.82
2019-02-16T05:45:26.887Z,3.94
2019-02-16T05:50:45.537Z,3.97
2019-02-16T05:56:04.187Z,4.06
2019-02-16T06:01:24.432Z,3.91
2019-02-16T06:06:43.101Z,3.69
2019-02-16T06:12:01.763Z,3.08
2019-02-16T06:17:20.387Z,2.99
2019-02-16T06:22:38.941Z,2.96
2019-02-16T06:27:57.494Z,2.71
2019-02-16T06:33:16.061Z,2.76
2019-02-16T06:38:34.667Z,2.76
2019-02-16T06:43:53.280Z,2.79
2019-02-16T06:49:11.835Z,2.58
2019-02-16T06:54:31.188Z,2.47
2019-02-16T06:59:51.722Z,2.44
2019-02-16T07:05:10.360Z,2.44
2019-02-16T07:10:28.912Z,2.22
2019-02-16T07:15:49.151Z,2.44
2019-02-16T07:21:07.703Z,2.79
2019-02-16T07:26:26.358Z,2.73
2019-02-16T07:31:46.366Z,2.78
2019-02-16T07:37:04.986Z,3.04
2019-02-16T07:42:23.541Z,3.23
2019-02-16T07:47:46.912Z,4.75
2019-02-16T07:53:07.175Z,6.54
2019-02-16T07:58:29.022Z,7.28
2019-02-16T08:04:04.949Z,7.90
2019-02-16T08:09:34.153Z,8.65
2019-02-16T08:15:03.321Z,9.17
2019-02-16T08:20:26.428Z,10.91
2019-02-16T08:25:46.617Z,11.92
2019-02-16T08:31:09.949Z,11.74
2019-02-16T08:36:37.708Z,11.70
2019-02-16T08:42:00.177Z,13.49
2019-02-16T08:47:20.347Z,14.75
2019-02-16T08:52:56.238Z,15.19
2019-02-16T08:58:21.634Z,15.89
2019-02-16T09:03:59.281Z,16.34
2019-02-16T09:09:19.466Z,16.39
2019-02-16T09:14:42.438Z,15.21
2019-02-16T09:20:11.568Z,15.42
2019-02-16T09:25:47.519Z,15.20
2019-02-16T09:31:23.826Z,14.40
2019-02-16T09:36:54.818Z,14.14
2019-02-16T09:42:14.795Z,12.68
2019-02-16T09:47:43.881Z,12.27
2019-02-16T09:53:04.150Z,12.51
2019-02-16T09:58:29.782Z,12.98
2019-02-16T10:03:52.651Z,13.23
2019-02-16T10:09:15.619Z,13.62
2019-02-16T10:14:35.821Z,14.25
2019-02-16T10:20:01.926Z,13.74
2019-02-16T10:25:34.203Z,14.46
2019-02-16T10:30:57.160Z,14.22
2019-02-16T10:36:33.248Z,14.05
2019-02-16T10:41:53.360Z,13.68
2019-02-16T10:47:19.500Z,13.70
2019-02-16T10:52:57.617Z,13.50
2019-02-16T10:58:20.499Z,13.50
2019-02-16T11:03:43.220Z,13.77
2019-02-16T11:09:12.280Z,13.85
2019-02-16T11:14:32.544Z,13.67
2019-02-16T11:20:01.568Z,13.72
2019-02-16T11:25:36.570Z,13.82
2019-02-16T11:31:08.976Z,13.71
2019-02-16T11:36:32.103Z,13.92
2019-02-16T11:41:56.969Z,14.11
2019-02-16T11:47:23.295Z,14.39
2019-02-16T11:52:59.397Z,14.35
2019-02-16T11:58:19.728Z,14.54
2019-02-16T12:03:55.117Z,14.47
2019-02-16T12:09:31.578Z,14.39
2019-02-16T12:14:57.384Z,14.48
2019-02-16T12:20:33.638Z,14.79
2019-02-16T12:26:00.163Z,14.93
2019-02-16T12:31:26.415Z,15.18
2019-02-16T12:36:46.583Z,15.13
2019-02-16T12:42:21.359Z,15.25
2019-02-16T12:47:44.257Z,15.39
2019-02-16T12:53:04.434Z,15.38
2019-02-16T12:58:33.804Z,15.63
2019-02-16T13:04:02.838Z,15.63
2019-02-16T13:09:40.367Z,15.44
2019-02-16T13:15:03.090Z,15.55
2019-02-16T13:20:25.800Z,15.39
2019-02-16T13:25:46.029Z,15.58
2019-02-16T13:31:09.224Z,15.40
2019-02-16T13:36:35.332Z,15.43
2019-02-16T13:42:01.451Z,15.23
2019-02-16T13:47:24.734Z,15.19
2019-02-16T13:52:44.891Z,15.13
2019-02-16T13:58:05.512Z,14.99
2019-02-16T14:03:43.566Z,14.90
2019-02-16T14:09:12.969Z,15.06
2019-02-16T14:14:43.504Z,14.89
2019-02-16T14:20:01.977Z,14.82
2019-02-16T14:25:22.162Z,14.76
2019-02-16T14:30:40.968Z,14.80
2019-02-16T14:35:59.584Z,14.70
2019-02-16T14:41:18.218Z,14.60
2019-02-16T14:46:36.803Z,14.60
2019-02-16T14:51:55.433Z,14.75
2019-02-16T14:57:14.004Z,14.61
2019-02-16T15:02:32.567Z,14.28
2019-02-16T15:07:51.116Z,14.25
2019-02-16T15:13:09.832Z,14.12
2019-02-16T15:18:28.724Z,14.14
2019-02-16T15:23:47.307Z,13.96
2019-02-16T15:29:05.943Z,13.99
2019-02-16T15:34:24.513Z,13.90
2019-02-16T15:39:43.076Z,13.88
2019-02-16T15:45:01.743Z,13.91
2019-02-16T15:50:20.364Z,13.76
2019-02-16T15:55:38.800Z,13.56
2019-02-16T16:00:57.390Z,13.36
2019-02-16T16:06:16.033Z,13.16
2019-02-16T16:11:52.214Z,13.05
2019-02-16T16:17:12.395Z,12.75
2019-02-16T16:22:32.778Z,12.47
2019-02-16T16:28:09.145Z,12.24
2019-02-16T16:33:29.318Z,12.11
2019-02-16T16:38:55.633Z,11.88
2019-02-16T16:44:15.781Z,11.67
2019-02-16T16:49:42.027Z,11.21
2019-02-16T16:55:18.163Z,11.02
2019-02-16T17:00:54.681Z,10.81
2019-02-16T17:06:17.532Z,10.64
2019-02-16T17:11:46.888Z,10.45
2019-02-16T17:17:13.211Z,10.27
2019-02-16T17:22:45.531Z,10.19
2019-02-16T17:28:17.719Z,9.51
2019-02-16T17:33:53.087Z,9.29
2019-02-16T17:39:13.405Z,9.31
2019-02-16T17:44:51.564Z,8.89
2019-02-16T17:50:14.592Z,8.79
2019-02-16T17:55:35.675Z,8.78
2019-02-16T18:00:58.972Z,8.44
2019-02-16T18:06:33.645Z,7.98
2019-02-16T18:11:56.564Z,7.92
2019-02-16T18:17:16.769Z,7.54
2019-02-16T18:22:37.009Z,7.18
2019-02-16T18:28:12.897Z,6.84
2019-02-16T18:33:41.905Z,6.67
2019-02-16T18:39:02.368Z,6.77
2019-02-16T18:44:31.677Z,6.63
2019-02-16T18:50:08.393Z,6.31
2019-02-16T18:55:40.962Z,6.04
2019-02-16T19:01:03.874Z,5.91
2019-02-16T19:06:30.198Z,5.63
2019-02-16T19:11:56.131Z,5.32
2019-02-16T19:17:16.365Z,5.24
2019-02-16T19:22:39.682Z,5.22
2019-02-16T19:28:11.772Z,5.23
2019-02-16T19:33:32.027Z,5.24
2019-02-16T19:39:01.313Z,5.19
2019-02-16T19:44:21.541Z,4.80
2019-02-16T19:49:41.654Z,4.67
2019-02-16T19:55:01.976Z,4.55
2019-02-16T20:00:22.980Z,4.58
2019-02-16T20:05:43.209Z,4.50
2019-02-16T20:11:19.943Z,4.28
2019-02-16T20:16:56.310Z,4.50
2019-02-16T20:22:25.252Z,5.04
2019-02-16T20:28:01.599Z,4.33
2019-02-16T20:33:33.431Z,4.41
2019-02-16T20:39:08.637Z,4.14
2019-02-16T20:44:28.839Z,3.86
2019-02-16T20:49:54.825Z,3.61
2019-02-16T20:55:26.946Z,3.57
2019-02-16T21:00:51.988Z,3.37
2019-02-16T21:06:17.744Z,3.04
2019-02-16T21:11:44.057Z,3.10
2019-02-16T21:17:22.259Z,2.99
2019-02-16T21:22:58.590Z,2.89
2019-02-16T21:28:18.960Z,2.81
2019-02-16T21:33:48.100Z,2.72
2019-02-16T21:39:14.371Z,2.68
2019-02-16T21:44:51.325Z,2.58
2019-02-16T21:50:11.799Z,2.63
2019-02-16T21:55:41.020Z,2.62
2019-02-16T22:01:09.960Z,2.64
2019-02-16T22:06:46.014Z,2.60
2019-02-16T22:12:06.212Z,2.48
2019-02-16T22:17:24.799Z,2.27
2019-02-16T22:22:43.374Z,2.03
2019-02-16T22:28:01.952Z,2.17
2019-02-16T22:33:22.060Z,1.97
2019-02-16T22:38:40.744Z,2.31
2019-02-16T22:43:59.455Z,2.22
2019-02-16T22:49:19.085Z,2.15
2019-02-16T22:54:37.631Z,2.15
2019-02-16T22:59:56.256Z,2.03
2019-02-16T23:05:15.480Z,1.93
2019-02-16T23:10:34.107Z,1.75
2019-02-16T23:15:53.019Z,1.99
2019-02-16T23:21:11.650Z,2.10
2019-02-16T23:26:30.395Z,2.03
2019-02-16T23:31:49.017Z,1.75
2019-02-16T23:37:07.648Z,1.90
2019-02-16T23:42:26.214Z,1.92
2019-02-16T23:47:44.773Z,1.86
2019-02-16T23:53:04.603Z,1.40
2019-02-16T23:58:25.020Z,1.47
